createdAt,value
2018-11-11T00:00:20.564Z,99.94
2018-11-11T00:02:51.110Z,100.00
2018-11-11T00:05:20.555Z,100.00
2018-11-11T00:07:49.120Z,100.00
2018-11-11T00:10:17.658Z,100.00
2018-11-11T00:12:47.099Z,100.00
2018-11-11T00:15:17.530Z,100.00
2018-11-11T00:17:47.507Z,100.00
2018-11-11T00:20:16.610Z,100.00
2018-11-11T00:22:46.127Z,100.00
2018-11-11T00:25:15.454Z,100.00
2018-11-11T00:27:45.756Z,100.00
2018-11-11T00:30:18.315Z,100.00
2018-11-11T00:32:47.242Z,100.00
2018-11-11T00:35:18.227Z,100.00
2018-11-11T00:37:47.640Z,99.98
2018-11-11T00:40:19.906Z,100.00
2018-11-11T00:42:48.595Z,99.95
2018-11-11T00:45:18.392Z,99.89
2018-11-11T00:47:47.303Z,99.87
2018-11-11T00:50:17.044Z,99.89
2018-11-11T00:52:46.810Z,99.75
2018-11-11T00:55:17.213Z,99.76
2018-11-11T00:57:46.549Z,99.48
2018-11-11T01:00:17.587Z,99.21
2018-11-11T01:02:46.671Z,98.88
2018-11-11T01:05:16.249Z,98.82
2018-11-11T01:07:46.358Z,98.86
2018-11-11T01:10:17.483Z,98.80
2018-11-11T01:12:46.899Z,98.69
2018-11-11T01:15:16.948Z,98.69
2018-11-11T01:17:47.397Z,98.92
2018-11-11T01:20:17.891Z,98.96
2018-11-11T01:22:47.596Z,99.21
2018-11-11T01:25:17.396Z,99.09
2018-11-11T01:27:46.810Z,99.05
2018-11-11T01:30:15.939Z,98.73
2018-11-11T01:32:45.492Z,98.80
2018-11-11T01:35:15.489Z,98.60
2018-11-11T01:37:44.392Z,98.55
2018-11-11T01:40:13.301Z,98.55
2018-11-11T01:42:41.850Z,98.68
2018-11-11T01:45:15.770Z,98.97
2018-11-11T01:47:46.650Z,99.31
2018-11-11T01:50:16.207Z,99.52
2018-11-11T01:52:46.369Z,99.68
2018-11-11T01:55:16.901Z,99.70
2018-11-11T01:57:47.444Z,99.66
2018-11-11T02:00:18.105Z,99.74
2018-11-11T02:02:47.387Z,100.00
2018-11-11T02:05:17.068Z,100.00
2018-11-11T02:07:47.219Z,100.00
2018-11-11T02:10:16.717Z,100.00
2018-11-11T02:12:46.882Z,100.00
2018-11-11T02:15:17.653Z,100.00
2018-11-11T02:17:47.235Z,100.00
2018-11-11T02:20:17.983Z,100.00
2018-11-11T02:22:48.336Z,100.00
2018-11-11T02:25:17.951Z,100.00
2018-11-11T02:27:47.690Z,100.00
2018-11-11T02:30:18.049Z,100.00
2018-11-11T02:32:47.662Z,100.00
2018-11-11T02:35:17.214Z,100.00
2018-11-11T02:37:46.907Z,100.00
2018-11-11T02:40:18.440Z,100.00
2018-11-11T02:42:48.491Z,100.00
2018-11-11T02:45:19.182Z,100.00
2018-11-11T02:47:47.756Z,100.00
2018-11-11T02:50:19.129Z,100.00
2018-11-11T02:52:48.872Z,100.00
2018-11-11T02:55:17.857Z,100.00
2018-11-11T02:57:47.546Z,100.00
2018-11-11T03:00:19.186Z,100.00
2018-11-11T03:02:48.902Z,100.00
2018-11-11T03:05:18.266Z,99.77
2018-11-11T03:07:47.855Z,100.00
2018-11-11T03:10:18.598Z,100.00
2018-11-11T03:12:48.070Z,99.94
2018-11-11T03:15:17.243Z,99.88
2018-11-11T03:17:46.797Z,99.65
2018-11-11T03:20:17.953Z,99.66
2018-11-11T03:22:46.543Z,99.46
2018-11-11T03:25:16.581Z,99.18
2018-11-11T03:27:45.766Z,99.05
2018-11-11T03:30:17.196Z,99.31
2018-11-11T03:32:46.587Z,99.06
2018-11-11T03:35:15.976Z,98.94
2018-11-11T03:37:45.244Z,98.24
2018-11-11T03:40:17.472Z,98.25
2018-11-11T03:42:47.307Z,97.51
2018-11-11T03:45:18.009Z,97.77
2018-11-11T03:47:47.545Z,97.79
2018-11-11T03:50:16.989Z,98.21
2018-11-11T03:52:47.787Z,98.30
2018-11-11T03:55:18.299Z,99.15
2018-11-11T03:57:47.833Z,99.56
2018-11-11T04:00:17.265Z,99.67
2018-11-11T04:02:46.748Z,100.00
2018-11-11T04:05:17.056Z,100.00
2018-11-11T04:07:46.377Z,100.00
2018-11-11T04:10:18.269Z,100.00
2018-11-11T04:12:48.315Z,100.00
2018-11-11T04:15:18.007Z,100.00
2018-11-11T04:17:46.892Z,99.90
2018-11-11T04:20:16.996Z,99.97
2018-11-11T04:22:46.006Z,99.58
2018-11-11T04:25:15.154Z,99.45
2018-11-11T04:27:44.410Z,99.29
2018-11-11T04:30:14.492Z,99.21
2018-11-11T04:32:43.273Z,99.20
2018-11-11T04:35:12.106Z,99.59
2018-11-11T04:37:40.648Z,99.23
2018-11-11T04:40:10.557Z,99.28
2018-11-11T04:42:39.094Z,99.15
2018-11-11T04:45:09.614Z,99.13
2018-11-11T04:47:38.191Z,99.30
2018-11-11T04:50:08.698Z,99.46
2018-11-11T04:52:37.243Z,99.55
2018-11-11T04:55:06.235Z,99.43
2018-11-11T04:57:34.849Z,99.20
2018-11-11T05:00:03.464Z,99.21
2018-11-11T05:02:32.029Z,99.24
2018-11-11T05:05:01.596Z,99.46
2018-11-11T05:07:30.196Z,99.30
2018-11-11T05:09:58.784Z,99.49
2018-11-11T05:12:27.344Z,99.41
2018-11-11T05:14:55.897Z,99.35
2018-11-11T05:17:24.369Z,99.57
2018-11-11T05:19:52.940Z,99.31
2018-11-11T05:22:21.492Z,99.15
2018-11-11T05:24:50.019Z,99.35
2018-11-11T05:27:18.576Z,99.14
2018-11-11T05:29:47.123Z,99.35
2018-11-11T05:32:16.388Z,99.16
2018-11-11T05:34:46.125Z,99.13
2018-11-11T05:37:15.725Z,99.06
2018-11-11T05:39:44.296Z,99.20
2018-11-11T05:42:12.831Z,99.30
2018-11-11T05:44:41.428Z,99.30
2018-11-11T05:47:09.966Z,99.43
2018-11-11T05:49:38.491Z,99.45
2018-11-11T05:52:07.046Z,99.52
2018-11-11T05:54:35.571Z,99.49
2018-11-11T05:57:04.179Z,99.65
2018-11-11T05:59:32.751Z,99.75
2018-11-11T06:02:01.371Z,99.64
2018-11-11T06:04:30.777Z,99.56
2018-11-11T06:06:59.311Z,99.39
2018-11-11T06:09:27.855Z,99.49
2018-11-11T06:11:56.401Z,99.48
2018-11-11T06:14:25.831Z,99.29
2018-11-11T06:16:54.385Z,99.47
2018-11-11T06:19:22.918Z,99.64
2018-11-11T06:21:51.476Z,99.64
2018-11-11T06:24:20.047Z,99.84
2018-11-11T06:26:48.835Z,99.88
2018-11-11T06:29:17.422Z,100.00
2018-11-11T06:31:46.567Z,100.00
2018-11-11T06:34:15.810Z,100.00
2018-11-11T06:36:44.671Z,99.93
2018-11-11T06:39:14.108Z,100.00
2018-11-11T06:41:42.645Z,99.99
2018-11-11T06:44:11.182Z,100.00
2018-11-11T06:46:39.732Z,99.88
2018-11-11T06:49:08.414Z,99.95
2018-11-11T06:51:36.958Z,99.91
2018-11-11T06:54:06.877Z,99.82
2018-11-11T06:56:35.457Z,99.64
2018-11-11T06:59:04.024Z,99.47
2018-11-11T07:01:32.599Z,99.05
2018-11-11T07:04:02.219Z,98.99
2018-11-11T07:06:31.242Z,98.81
2018-11-11T07:08:59.898Z,98.88
2018-11-11T07:11:28.448Z,98.52
2018-11-11T07:13:57.116Z,98.04
2018-11-11T07:16:25.672Z,98.11
2018-11-11T07:18:54.190Z,98.02
2018-11-11T07:21:22.743Z,98.21
2018-11-11T07:23:51.380Z,98.42
2018-11-11T07:26:19.986Z,98.34
2018-11-11T07:28:49.415Z,98.26
2018-11-11T07:31:17.984Z,98.65
2018-11-11T07:33:46.662Z,98.56
2018-11-11T07:36:15.736Z,98.83
2018-11-11T07:38:44.540Z,98.37
2018-11-11T07:41:14.707Z,98.32
2018-11-11T07:43:43.434Z,98.05
2018-11-11T07:46:13.569Z,98.02
2018-11-11T07:48:42.151Z,97.91
2018-11-11T07:51:11.685Z,97.97
2018-11-11T07:53:41.089Z,98.05
2018-11-11T07:56:10.506Z,97.84
2018-11-11T07:58:39.058Z,97.66
2018-11-11T08:01:07.654Z,97.23
2018-11-11T08:03:36.178Z,97.57
2018-11-11T08:06:04.788Z,97.28
2018-11-11T08:08:33.295Z,97.15
2018-11-11T08:11:13.351Z,97.28
2018-11-11T08:13:41.874Z,96.99
2018-11-11T08:16:10.412Z,96.87
2018-11-11T08:18:40.534Z,96.29
2018-11-11T08:21:09.097Z,95.95
2018-11-11T08:23:38.656Z,95.78
2018-11-11T08:26:08.123Z,95.85
2018-11-11T08:28:36.706Z,95.89
2018-11-11T08:31:05.423Z,96.16
2018-11-11T08:33:34.950Z,96.41
2018-11-11T08:36:04.565Z,96.22
2018-11-11T08:38:33.125Z,95.79
2018-11-11T08:41:01.657Z,95.30
2018-11-11T08:43:31.093Z,95.30
2018-11-11T08:45:59.658Z,95.47
2018-11-11T08:48:29.271Z,95.30
2018-11-11T08:50:58.689Z,95.44
2018-11-11T08:53:28.167Z,95.11
2018-11-11T08:56:17.062Z,95.33
2018-11-11T08:58:46.680Z,95.55
2018-11-11T09:01:16.379Z,95.26
2018-11-11T09:03:46.858Z,95.43
2018-11-11T09:06:17.443Z,95.67
2018-11-11T09:08:47.000Z,95.35
2018-11-11T09:11:16.576Z,94.38
2018-11-11T09:13:46.580Z,93.66
2018-11-11T09:16:16.528Z,93.94
2018-11-11T09:18:45.637Z,93.81
2018-11-11T09:21:14.614Z,93.51
2018-11-11T09:23:43.406Z,93.29
2018-11-11T09:26:12.008Z,92.14
2018-11-11T09:28:40.567Z,93.07
2018-11-11T09:31:09.446Z,92.77
2018-11-11T09:33:38.293Z,92.17
2018-11-11T09:36:07.750Z,92.57
2018-11-11T09:38:37.375Z,93.65
2018-11-11T09:41:06.775Z,92.48
2018-11-11T09:43:36.416Z,92.16
2018-11-11T09:46:04.992Z,92.21
2018-11-11T09:48:34.734Z,92.32
2018-11-11T09:51:03.571Z,92.54
2018-11-11T09:53:33.146Z,92.07
2018-11-11T09:56:02.664Z,91.42
2018-11-11T09:58:31.436Z,91.94
2018-11-11T10:01:00.856Z,91.69
2018-11-11T10:03:35.117Z,91.36
2018-11-11T10:06:10.643Z,92.98
2018-11-11T10:08:48.316Z,92.56
2018-11-11T10:11:36.565Z,92.32
2018-11-11T10:15:14.492Z,92.23
2018-11-11T10:17:48.133Z,92.14
2018-11-11T10:21:22.888Z,91.88
2018-11-11T10:23:56.345Z,91.81
2018-11-11T10:26:34.108Z,90.50
2018-11-11T10:29:07.462Z,89.97
2018-11-11T10:31:42.231Z,89.25
2018-11-11T10:34:16.213Z,88.38
2018-11-11T10:36:55.254Z,88.79
2018-11-11T10:39:30.289Z,88.48
2018-11-11T10:42:03.777Z,88.32
2018-11-11T10:44:38.197Z,88.30
2018-11-11T10:47:10.053Z,88.01
2018-11-11T10:49:45.043Z,88.50
2018-11-11T10:52:14.325Z,88.94
2018-11-11T10:54:42.845Z,88.62
2018-11-11T10:57:11.430Z,89.36
2018-11-11T10:59:39.972Z,89.39
2018-11-11T11:02:14.993Z,89.01
2018-11-11T11:04:48.832Z,89.04
2018-11-11T11:07:17.399Z,89.31
2018-11-11T11:09:46.724Z,89.11
2018-11-11T11:12:16.091Z,88.55
2018-11-11T11:14:45.267Z,89.32
2018-11-11T11:17:14.656Z,89.87
2018-11-11T11:19:43.762Z,89.17
2018-11-11T11:22:12.657Z,88.37
2018-11-11T11:24:41.380Z,89.12
2018-11-11T11:27:10.007Z,88.77
2018-11-11T11:29:39.437Z,89.87
2018-11-11T11:32:08.060Z,88.64
2018-11-11T11:34:36.593Z,87.32
2018-11-11T11:37:05.565Z,87.30
2018-11-11T11:39:34.276Z,85.99
2018-11-11T11:42:02.987Z,84.68
2018-11-11T11:44:31.827Z,84.59
2018-11-11T11:47:00.552Z,85.04
2018-11-11T11:49:29.264Z,84.71
2018-11-11T11:51:57.840Z,84.43
2018-11-11T11:54:26.595Z,85.23
2018-11-11T11:56:55.312Z,85.60
2018-11-11T11:59:24.031Z,85.66
2018-11-11T12:01:52.675Z,87.09
2018-11-11T12:04:21.409Z,87.07
2018-11-11T12:06:50.083Z,87.40
2018-11-11T12:09:18.848Z,88.24
2018-11-11T12:11:47.498Z,89.01
2018-11-11T12:14:17.964Z,88.87
2018-11-11T12:16:47.235Z,89.52
2018-11-11T12:19:17.043Z,89.43
2018-11-11T12:21:46.238Z,90.29
2018-11-11T12:24:16.619Z,89.86
2018-11-11T12:26:46.717Z,89.91
2018-11-11T12:29:17.589Z,90.29
2018-11-11T12:31:47.166Z,91.69
2018-11-11T12:34:16.767Z,92.92
2018-11-11T12:36:47.551Z,92.69
2018-11-11T12:39:17.408Z,92.62
2018-11-11T12:41:46.931Z,92.11
2018-11-11T12:44:16.466Z,91.51
2018-11-11T12:46:46.670Z,90.59
2018-11-11T12:49:17.593Z,90.33
2018-11-11T12:51:46.535Z,89.80
2018-11-11T12:54:17.036Z,90.94
2018-11-11T12:56:46.670Z,90.64
2018-11-11T12:59:17.035Z,91.32
2018-11-11T13:01:47.132Z,91.84
2018-11-11T13:04:16.057Z,90.62
2018-11-11T13:06:45.711Z,90.85
2018-11-11T13:09:14.327Z,89.38
2018-11-11T13:11:43.469Z,90.48
2018-11-11T13:14:14.127Z,91.32
2018-11-11T13:16:42.815Z,90.03
2018-11-11T13:19:11.961Z,89.54
2018-11-11T13:21:40.489Z,88.77
2018-11-11T13:24:09.183Z,88.42
2018-11-11T13:26:37.892Z,88.08
2018-11-11T13:29:07.526Z,88.62
2018-11-11T13:31:36.238Z,89.52
2018-11-11T13:34:04.814Z,90.12
2018-11-11T13:36:33.491Z,90.13
2018-11-11T13:39:02.284Z,90.24
2018-11-11T13:41:31.863Z,91.45
2018-11-11T13:44:00.494Z,91.76
2018-11-11T13:46:29.288Z,91.70
2018-11-11T13:48:58.221Z,91.16
2018-11-11T13:51:26.812Z,91.10
2018-11-11T13:53:56.419Z,91.21
2018-11-11T13:56:24.984Z,91.59
2018-11-11T13:58:53.509Z,91.41
2018-11-11T14:01:23.194Z,91.22
2018-11-11T14:03:52.633Z,92.06
2018-11-11T14:06:22.356Z,91.75
2018-11-11T14:18:00.330Z,92.61
2018-11-11T14:20:29.805Z,92.60
2018-11-11T14:22:59.295Z,92.41
2018-11-11T14:25:29.500Z,92.69
2018-11-11T14:27:58.066Z,92.84
2018-11-11T14:30:28.495Z,92.53
2018-11-11T14:32:58.069Z,92.34
2018-11-11T14:35:26.795Z,92.57
2018-11-11T14:37:56.544Z,92.93
2018-11-11T14:40:26.373Z,92.87
2018-11-11T14:42:54.961Z,92.88
2018-11-11T14:45:24.213Z,92.64
2018-11-11T14:47:54.172Z,92.19
2018-11-11T14:50:23.490Z,92.51
2018-11-11T14:52:52.950Z,92.40
2018-11-11T14:55:24.827Z,92.26
2018-11-11T14:57:54.402Z,92.61
2018-11-11T15:00:26.152Z,92.74
2018-11-11T15:03:02.504Z,92.85
2018-11-11T15:05:31.126Z,92.93
2018-11-11T15:08:00.800Z,93.39
2018-11-11T15:10:30.393Z,93.21
2018-11-11T15:12:59.876Z,94.07
2018-11-11T15:15:28.461Z,93.49
2018-11-11T15:17:58.971Z,93.92
2018-11-11T15:20:27.649Z,94.64
2018-11-11T15:22:56.537Z,94.49
2018-11-11T15:25:27.273Z,94.32
2018-11-11T15:27:55.864Z,94.50
2018-11-11T15:30:27.460Z,94.45
2018-11-11T15:32:57.412Z,94.80
2018-11-11T15:35:26.873Z,94.90
2018-11-11T15:37:56.351Z,94.90
2018-11-11T15:40:28.235Z,94.99
2018-11-11T15:42:56.839Z,94.83
2018-11-11T15:45:27.545Z,95.45
2018-11-11T15:47:56.146Z,94.71
2018-11-11T15:50:25.999Z,95.43
2018-11-11T15:52:55.829Z,95.58
2018-11-11T15:55:25.670Z,95.12
2018-11-11T15:57:54.354Z,95.33
2018-11-11T16:00:24.450Z,95.25
2018-11-11T16:02:53.027Z,96.06
2018-11-11T16:05:21.859Z,96.62
2018-11-11T16:07:51.351Z,96.06
2018-11-11T16:10:21.249Z,96.17
2018-11-11T16:12:49.923Z,96.89
2018-11-11T16:15:21.945Z,96.12
2018-11-11T16:17:52.797Z,95.78
2018-11-11T16:20:23.663Z,96.10
2018-11-11T16:22:54.353Z,96.29
2018-11-11T16:25:22.974Z,97.17
2018-11-11T16:27:52.592Z,96.43
2018-11-11T16:30:22.389Z,96.57
2018-11-11T16:32:52.641Z,96.96
2018-11-11T16:35:23.342Z,96.85
2018-11-11T16:37:52.967Z,96.54
2018-11-11T16:40:23.788Z,96.81
2018-11-11T16:42:52.708Z,97.46
2018-11-11T16:45:23.369Z,97.33
2018-11-11T16:47:52.957Z,97.49
2018-11-11T16:50:24.735Z,97.21
2018-11-11T16:52:55.025Z,97.99
2018-11-11T16:55:26.024Z,97.55
2018-11-11T16:57:54.577Z,97.78
2018-11-11T17:00:25.405Z,97.70
2018-11-11T17:02:55.473Z,98.40
2018-11-11T17:05:26.940Z,98.00
2018-11-11T17:07:56.518Z,98.09
2018-11-11T17:10:26.778Z,97.83
2018-11-11T17:12:56.337Z,98.38
2018-11-11T17:15:26.239Z,98.42
2018-11-11T17:17:55.688Z,98.26
2018-11-11T17:20:25.057Z,98.38
2018-11-11T17:22:54.678Z,97.87
2018-11-11T17:25:24.361Z,98.20
2018-11-11T17:27:52.938Z,98.42
2018-11-11T17:30:22.997Z,98.04
2018-11-11T17:32:52.131Z,98.12
2018-11-11T17:35:21.697Z,98.37
2018-11-11T17:37:50.279Z,98.48
2018-11-11T17:40:21.600Z,98.47
2018-11-11T17:42:51.120Z,98.16
2018-11-11T17:45:20.799Z,98.00
2018-11-11T17:47:50.043Z,98.26
2018-11-11T17:50:20.303Z,98.91
2018-11-11T17:52:48.839Z,99.14
2018-11-11T17:55:18.963Z,99.00
2018-11-11T17:57:48.646Z,99.58
2018-11-11T18:00:18.481Z,99.50
2018-11-11T18:02:48.390Z,99.71
2018-11-11T18:05:19.248Z,99.22
2018-11-11T18:07:47.833Z,99.32
2018-11-11T18:10:18.983Z,99.51
2018-11-11T18:12:48.431Z,99.51
2018-11-11T18:15:19.495Z,99.26
2018-11-11T18:17:49.212Z,99.34
2018-11-11T18:20:19.384Z,99.33
2018-11-11T18:22:48.416Z,99.03
2018-11-11T18:25:17.180Z,99.22
2018-11-11T18:27:46.493Z,98.86
2018-11-11T18:30:21.552Z,98.83
2018-11-11T18:32:50.164Z,98.89
2018-11-11T18:35:19.433Z,98.21
2018-11-11T18:37:48.096Z,99.10
2018-11-11T18:40:18.284Z,98.36
2018-11-11T18:42:47.111Z,98.05
2018-11-11T18:45:29.808Z,97.86
2018-11-11T18:47:58.451Z,97.66
2018-11-11T18:50:31.800Z,97.46
2018-11-11T18:53:00.684Z,96.81
2018-11-11T18:55:29.485Z,97.48
2018-11-11T18:57:58.223Z,96.94
2018-11-11T19:00:28.327Z,96.88
2018-11-11T19:02:57.401Z,97.21
2018-11-11T19:05:26.568Z,97.51
2018-11-11T19:07:55.442Z,97.48
2018-11-11T19:10:25.429Z,97.22
2018-11-11T19:12:55.519Z,97.04
2018-11-11T19:15:25.222Z,97.52
2018-11-11T19:17:55.524Z,97.59
2018-11-11T19:20:25.330Z,97.43
2018-11-11T19:22:54.862Z,97.66
2018-11-11T19:25:25.698Z,97.84
2018-11-11T19:27:54.987Z,97.57
2018-11-11T19:30:25.834Z,97.38
2018-11-11T19:32:55.073Z,97.02
2018-11-11T19:35:23.707Z,96.33
2018-11-11T19:37:53.740Z,97.21
2018-11-11T19:40:23.536Z,97.16
2018-11-11T19:42:53.824Z,96.82
2018-11-11T19:45:23.793Z,97.43
2018-11-11T19:47:53.303Z,97.45
2018-11-11T19:50:23.029Z,97.72
2018-11-11T19:52:52.676Z,97.75
2018-11-11T19:55:22.529Z,97.76
2018-11-11T19:57:51.999Z,98.02
2018-11-11T20:00:23.005Z,98.23
2018-11-11T20:02:52.133Z,98.62
2018-11-11T20:05:22.159Z,98.47
2018-11-11T20:07:51.964Z,98.32
2018-11-11T20:10:21.238Z,98.76
2018-11-11T20:12:50.004Z,98.47
2018-11-11T20:15:21.274Z,98.77
2018-11-11T20:17:50.743Z,98.61
2018-11-11T20:20:21.831Z,98.42
2018-11-11T20:22:50.598Z,98.17
2018-11-11T20:25:20.202Z,97.94
2018-11-11T20:27:49.101Z,98.39
2018-11-11T20:30:19.745Z,98.64
2018-11-11T20:32:48.331Z,98.30
2018-11-11T20:35:19.468Z,98.18
2018-11-11T20:37:48.180Z,97.91
2018-11-11T20:40:18.936Z,98.03
2018-11-11T20:42:48.882Z,97.56
2018-11-11T20:45:19.868Z,97.92
2018-11-11T20:47:49.194Z,97.93
2018-11-11T20:50:22.954Z,97.85
2018-11-11T20:52:54.142Z,97.66
2018-11-11T20:55:23.102Z,97.45
2018-11-11T20:57:51.868Z,97.52
2018-11-11T21:00:21.844Z,97.17
2018-11-11T21:02:51.389Z,97.38
2018-11-11T21:05:22.258Z,97.30
2018-11-11T21:07:51.861Z,97.38
2018-11-11T21:10:22.979Z,96.90
2018-11-11T21:12:52.185Z,97.79
2018-11-11T21:15:22.184Z,97.01
2018-11-11T21:17:50.837Z,96.62
2018-11-11T21:20:21.804Z,96.41
2018-11-11T21:22:50.799Z,96.31
2018-11-11T21:25:19.452Z,95.82
2018-11-11T21:27:49.345Z,95.47
2018-11-11T21:30:20.191Z,95.50
2018-11-11T21:32:49.103Z,95.40
2018-11-11T21:35:18.290Z,95.23
2018-11-11T21:37:46.885Z,96.19
2018-11-11T21:40:20.960Z,95.58
2018-11-11T21:42:50.267Z,95.58
2018-11-11T21:45:20.282Z,95.78
2018-11-11T21:47:49.108Z,94.84
2018-11-11T21:50:20.196Z,95.17
2018-11-11T21:52:54.250Z,95.08
2018-11-11T21:55:22.982Z,95.11
2018-11-11T21:57:52.484Z,94.60
2018-11-11T22:00:21.159Z,94.54
2018-11-11T22:02:49.811Z,94.62
2018-11-11T22:05:18.481Z,94.14
2018-11-11T22:07:47.284Z,94.14
2018-11-11T22:10:16.561Z,94.30
2018-11-11T22:12:46.241Z,94.17
2018-11-11T22:15:16.349Z,94.44
2018-11-11T22:17:45.609Z,93.52
2018-11-11T22:20:14.464Z,93.94
2018-11-11T22:22:43.449Z,93.05
2018-11-11T22:25:12.049Z,93.70
2018-11-11T22:27:40.667Z,93.36
2018-11-11T22:30:10.741Z,93.75
2018-11-11T22:32:39.670Z,93.83
2018-11-11T22:35:10.437Z,94.27
2018-11-11T22:37:39.247Z,93.33
2018-11-11T22:40:09.423Z,93.86
2018-11-11T22:42:38.027Z,92.66
2018-11-11T22:45:08.790Z,94.46
2018-11-11T22:47:37.700Z,94.28
2018-11-11T22:50:08.971Z,94.40
2018-11-11T22:52:38.139Z,94.41
2018-11-11T22:55:07.595Z,94.33
2018-11-11T22:57:36.239Z,94.33
2018-11-11T23:00:16.601Z,93.81
2018-11-11T23:02:46.509Z,94.42
2018-11-11T23:05:16.739Z,94.37
2018-11-11T23:07:46.289Z,94.62
2018-11-11T23:10:16.243Z,93.92
2018-11-11T23:12:46.188Z,94.64
2018-11-11T23:15:17.307Z,94.67
2018-11-11T23:17:46.655Z,94.22
2018-11-11T23:20:18.735Z,94.21
2018-11-11T23:22:48.363Z,94.07
2018-11-11T23:25:18.365Z,94.15
2018-11-11T23:27:47.031Z,93.93
2018-11-11T23:30:18.941Z,94.10
2018-11-11T23:32:48.501Z,92.84
2018-11-11T23:35:17.019Z,93.30
2018-11-11T23:37:46.020Z,93.14
2018-11-11T23:40:15.823Z,92.30
2018-11-11T23:42:45.512Z,92.65
2018-11-11T23:45:15.311Z,92.30
2018-11-11T23:47:44.202Z,93.03
2018-11-11T23:50:17.585Z,93.03
2018-11-11T23:52:47.611Z,93.44
2018-11-11T23:55:18.349Z,92.73
2018-11-11T23:57:46.896Z,93.29
